TimePDT,TemperatureF,Dew PointF,Humidity,Sea Level PressureIn,VisibilityMPH,Wind Direction,Wind SpeedMPH,Gust SpeedMPH,PrecipitationIn,Events,Conditions,WindDirDegrees,DateUTC
12:00 AM,51.8,50.0,94,30.38,15.0,WNW,5.8,-,N/A,,Overcast,300,2013-10-05 07:00:00
1:00 AM,53.6,48.2,82,30.37,15.0,Calm,Calm,-,N/A,,Overcast,0,2013-10-05 08:00:00
2:00 AM,53.6,44.6,72,30.36,15.0,ENE,12.7,-,N/A,,Overcast,70,2013-10-05 09:00:00
3:00 AM,53.6,44.6,72,30.36,15.0,ESE,4.6,-,N/A,,Overcast,110,2013-10-05 10:00:00
4:00 AM,53.6,46.4,77,30.35,15.0,East,6.9,-,N/A,,Overcast,100,2013-10-05 11:00:00
5:00 AM,53,47,73,30.36,15,ESE,5.8,,,,Overcast,110,2013-10-05 12:00:00
5:00 AM,53.6,46.4,77,30.35,15.0,East,6.9,-,N/A,,Overcast,100,2013-10-05 12:00:00
6:00 AM,53.6,46.4,77,30.35,15.0,ENE,10.4,-,N/A,,Overcast,70,2013-10-05 13:00:00
7:00 AM,53.6,48.2,82,30.34,15.0,SSE,9.2,-,N/A,,Overcast,160,2013-10-05 14:00:00
8:00 AM,53.6,48.2,82,30.35,15.0,ENE,4.6,-,N/A,,Overcast,60,2013-10-05 15:00:00
9:00 AM,55.4,50.0,82,30.35,20.0,ESE,8.1,-,N/A,,Mostly Cloudy,110,2013-10-05 16:00:00
10:00 AM,55.4,50.0,82,30.35,25.0,ENE,5.8,-,N/A,,Mostly Cloudy,70,2013-10-05 17:00:00
11:00 AM,57,49,68,30.34,25,East,6.9,,,,Overcast,90,2013-10-05 18:00:00
11:00 AM,57.2,50.0,77,30.33,25.0,East,6.9,-,N/A,,Overcast,90,2013-10-05 18:00:00
12:00 PM,59.0,50.0,72,30.33,25.0,East,5.8,-,N/A,,Overcast,100,2013-10-05 19:00:00
1:00 PM,60.8,50.0,68,30.32,25.0,East,5.8,-,N/A,,Mostly Cloudy,80,2013-10-05 20:00:00
2:00 PM,59.0,51.8,77,30.29,30.0,WSW,5.8,-,N/A,,Mostly Cloudy,250,2013-10-05 21:00:00
3:00 PM,62.6,51.8,68,30.26,30.0,Variable,2.3,-,N/A,,Mostly Cloudy,0,2013-10-05 22:00:00
4:00 PM,60.8,51.8,72,30.25,30.0,West,5.8,-,N/A,,Mostly Cloudy,270,2013-10-05 23:00:00
5:00 PM,60.8,50.0,68,30.23,30.0,West,5.8,-,N/A,,Mostly Cloudy,260,2013-10-06 00:00:00
6:00 PM,59.0,53.6,82,30.21,30.0,NNW,3.5,-,N/A,,Mostly Cloudy,340,2013-10-06 01:00:00
7:00 PM,57.2,51.8,82,30.20,30.0,Calm,Calm,-,N/A,,Overcast,0,2013-10-06 02:00:00
8:00 PM,55.4,51.8,88,30.19,30.0,North,2.3,-,N/A,,Mostly Cloudy,360,2013-10-06 03:00:00
9:00 PM,55.4,51.8,88,30.18,30.0,North,3.5,-,N/A,,Mostly Cloudy,350,2013-10-06 04:00:00
10:00 PM,53.6,50.0,88,30.17,30.0,SE,3.5,-,N/A,,Mostly Cloudy,140,2013-10-06 05:00:00
11:00 PM,51.8,50.0,94,30.17,30.0,North,4.6,-,N/A,,Mostly Cloudy,350,2013-10-06 06:00:00